sensor_id;sensor_type;location;lat;lon;timestamp;P1;durP1;ratioP1;P2;durP2;ratioP2
27666;SDS011;15074;50.940;5.282;2023-04-06T00:00:52;27.80;;;18.48;;
27666;SDS011;15074;50.940;5.282;2023-04-06T00:03:17;28.55;;;17.60;;
27666;SDS011;15074;50.940;5.282;2023-04-06T00:05:44;22.05;;;16.55;;
27666;SDS011;15074;50.940;5.282;2023-04-06T00:08:10;24.73;;;16.38;;
27666;SDS011;15074;50.940;5.282;2023-04-06T00:10:36;28.73;;;16.10;;
27666;SDS011;15074;50.940;5.282;2023-04-06T00:13:02;25.27;;;16.25;;
27666;SDS011;15074;50.940;5.282;2023-04-06T00:15:27;30.95;;;16.67;;
27666;SDS011;15074;50.940;5.282;2023-04-06T00:17:53;26.45;;;15.95;;
27666;SDS011;15074;50.940;5.282;2023-04-06T00:20:19;22.40;;;15.18;;
27666;SDS011;15074;50.940;5.282;2023-04-06T00:22:45;23.50;;;16.00;;
27666;SDS011;15074;50.940;5.282;2023-04-06T00:25:10;26.23;;;15.85;;
27666;SDS011;15074;50.940;5.282;2023-04-06T00:27:37;22.17;;;15.98;;
27666;SDS011;15074;50.940;5.282;2023-04-06T00:30:06;26.58;;;15.82;;
27666;SDS011;15074;50.940;5.282;2023-04-06T00:32:33;34.58;;;18.30;;
27666;SDS011;15074;50.940;5.282;2023-04-06T00:35:01;23.38;;;15.35;;
27666;SDS011;15074;50.940;5.282;2023-04-06T00:37:28;25.67;;;16.88;;
27666;SDS011;15074;50.940;5.282;2023-04-06T00:39:53;33.65;;;18.58;;
27666;SDS011;15074;50.940;5.282;2023-04-06T00:42:19;28.75;;;17.38;;
27666;SDS011;15074;50.940;5.282;2023-04-06T00:44:53;26.80;;;17.23;;
27666;SDS011;15074;50.940;5.282;2023-04-06T00:47:21;29.92;;;16.35;;
27666;SDS011;15074;50.940;5.282;2023-04-06T00:49:47;26.15;;;17.25;;
27666;SDS011;15074;50.940;5.282;2023-04-06T00:52:13;27.63;;;16.35;;
27666;SDS011;15074;50.940;5.282;2023-04-06T00:54:40;26.55;;;16.45;;
27666;SDS011;15074;50.940;5.282;2023-04-06T00:57:06;35.92;;;17.25;;
27666;SDS011;15074;50.940;5.282;2023-04-06T00:59:32;29.30;;;16.92;;
27666;SDS011;15074;50.940;5.282;2023-04-06T01:01:58;29.17;;;15.57;;
27666;SDS011;15074;50.940;5.282;2023-04-06T01:04:23;28.55;;;17.33;;
27666;SDS011;15074;50.940;5.282;2023-04-06T01:06:49;27.92;;;16.48;;
27666;SDS011;15074;50.940;5.282;2023-04-06T01:09:16;24.98;;;16.75;;
27666;SDS011;15074;50.940;5.282;2023-04-06T01:11:42;25.90;;;16.52;;
27666;SDS011;15074;50.940;5.282;2023-04-06T01:14:08;29.10;;;17.23;;
27666;SDS011;15074;50.940;5.282;2023-04-06T01:16:34;30.63;;;17.55;;
27666;SDS011;15074;50.940;5.282;2023-04-06T01:19:01;26.38;;;16.88;;
27666;SDS011;15074;50.940;5.282;2023-04-06T01:21:31;24.65;;;15.75;;
27666;SDS011;15074;50.940;5.282;2023-04-06T01:23:57;29.90;;;16.63;;
27666;SDS011;15074;50.940;5.282;2023-04-06T01:26:23;35.67;;;17.48;;
27666;SDS011;15074;50.940;5.282;2023-04-06T01:28:48;27.05;;;16.70;;
27666;SDS011;15074;50.940;5.282;2023-04-06T01:31:14;22.45;;;16.45;;
27666;SDS011;15074;50.940;5.282;2023-04-06T01:33:40;32.15;;;17.52;;
27666;SDS011;15074;50.940;5.282;2023-04-06T01:36:06;30.13;;;17.83;;
27666;SDS011;15074;50.940;5.282;2023-04-06T01:38:32;21.75;;;15.52;;
27666;SDS011;15074;50.940;5.282;2023-04-06T01:40:58;28.10;;;16.27;;
27666;SDS011;15074;50.940;5.282;2023-04-06T01:43:23;27.55;;;17.08;;
27666;SDS011;15074;50.940;5.282;2023-04-06T01:45:49;25.35;;;16.92;;
27666;SDS011;15074;50.940;5.282;2023-04-06T01:48:15;28.27;;;17.63;;
27666;SDS011;15074;50.940;5.282;2023-04-06T01:50:41;26.20;;;16.83;;
27666;SDS011;15074;50.940;5.282;2023-04-06T01:53:07;27.65;;;16.85;;
27666;SDS011;15074;50.940;5.282;2023-04-06T01:55:33;28.67;;;16.15;;
27666;SDS011;15074;50.940;5.282;2023-04-06T01:57:58;25.33;;;17.45;;
27666;SDS011;15074;50.940;5.282;2023-04-06T02:00:24;25.85;;;16.80;;
27666;SDS011;15074;50.940;5.282;2023-04-06T02:02:50;26.50;;;18.05;;
27666;SDS011;15074;50.940;5.282;2023-04-06T02:05:15;35.65;;;17.27;;
27666;SDS011;15074;50.940;5.282;2023-04-06T02:07:41;24.80;;;16.20;;
27666;SDS011;15074;50.940;5.282;2023-04-06T02:10:11;26.95;;;17.70;;
27666;SDS011;15074;50.940;5.282;2023-04-06T02:12:38;45.05;;;16.77;;
27666;SDS011;15074;50.940;5.282;2023-04-06T02:15:04;30.23;;;16.17;;
27666;SDS011;15074;50.940;5.282;2023-04-06T02:17:30;28.38;;;16.95;;
27666;SDS011;15074;50.940;5.282;2023-04-06T02:19:55;29.88;;;17.17;;
27666;SDS011;15074;50.940;5.282;2023-04-06T02:22:21;30.45;;;16.77;;
27666;SDS011;15074;50.940;5.282;2023-04-06T02:24:47;22.83;;;16.45;;
27666;SDS011;15074;50.940;5.282;2023-04-06T02:27:13;31.45;;;17.27;;
27666;SDS011;15074;50.940;5.282;2023-04-06T02:29:39;25.38;;;16.27;;
27666;SDS011;15074;50.940;5.282;2023-04-06T02:32:05;28.25;;;17.52;;
27666;SDS011;15074;50.940;5.282;2023-04-06T02:34:31;26.98;;;17.17;;
27666;SDS011;15074;50.940;5.282;2023-04-06T02:36:57;21.15;;;16.75;;
27666;SDS011;15074;50.940;5.282;2023-04-06T02:39:23;28.30;;;18.08;;
27666;SDS011;15074;50.940;5.282;2023-04-06T02:41:49;24.77;;;16.60;;
27666;SDS011;15074;50.940;5.282;2023-04-06T02:44:15;33.05;;;17.02;;
27666;SDS011;15074;50.940;5.282;2023-04-06T02:46:40;25.58;;;15.70;;
27666;SDS011;15074;50.940;5.282;2023-04-06T02:49:06;23.70;;;16.73;;
27666;SDS011;15074;50.940;5.282;2023-04-06T02:51:32;25.05;;;17.55;;
27666;SDS011;15074;50.940;5.282;2023-04-06T02:53:58;26.17;;;17.42;;
27666;SDS011;15074;50.940;5.282;2023-04-06T02:56:24;25.63;;;16.27;;
27666;SDS011;15074;50.940;5.282;2023-04-06T02:58:51;29.80;;;16.88;;
27666;SDS011;15074;50.940;5.282;2023-04-06T03:01:17;25.85;;;17.25;;
27666;SDS011;15074;50.940;5.282;2023-04-06T03:03:43;27.88;;;15.95;;
27666;SDS011;15074;50.940;5.282;2023-04-06T03:06:08;29.73;;;16.30;;
27666;SDS011;15074;50.940;5.282;2023-04-06T03:08:34;27.45;;;16.65;;
27666;SDS011;15074;50.940;5.282;2023-04-06T03:11:00;25.48;;;16.52;;
27666;SDS011;15074;50.940;5.282;2023-04-06T03:13:26;28.67;;;15.80;;
27666;SDS011;15074;50.940;5.282;2023-04-06T03:15:51;30.25;;;17.35;;
27666;SDS011;15074;50.940;5.282;2023-04-06T03:18:20;19.95;;;15.93;;
27666;SDS011;15074;50.940;5.282;2023-04-06T03:20:47;26.52;;;16.60;;
27666;SDS011;15074;50.940;5.282;2023-04-06T03:23:13;25.90;;;17.17;;
27666;SDS011;15074;50.940;5.282;2023-04-06T03:25:39;27.48;;;16.20;;
27666;SDS011;15074;50.940;5.282;2023-04-06T03:28:05;21.27;;;15.18;;
27666;SDS011;15074;50.940;5.282;2023-04-06T03:30:31;28.42;;;15.85;;
27666;SDS011;15074;50.940;5.282;2023-04-06T03:32:56;25.10;;;16.02;;
27666;SDS011;15074;50.940;5.282;2023-04-06T03:35:22;20.65;;;15.20;;
27666;SDS011;15074;50.940;5.282;2023-04-06T03:37:48;24.50;;;15.50;;
27666;SDS011;15074;50.940;5.282;2023-04-06T03:40:13;29.10;;;16.30;;
27666;SDS011;15074;50.940;5.282;2023-04-06T03:42:39;31.85;;;16.70;;
27666;SDS011;15074;50.940;5.282;2023-04-06T03:45:05;29.48;;;16.50;;
27666;SDS011;15074;50.940;5.282;2023-04-06T03:47:31;24.75;;;14.43;;
27666;SDS011;15074;50.940;5.282;2023-04-06T03:49:56;30.70;;;15.88;;
27666;SDS011;15074;50.940;5.282;2023-04-06T03:52:22;28.95;;;16.15;;
27666;SDS011;15074;50.940;5.282;2023-04-06T03:54:48;33.55;;;16.52;;
27666;SDS011;15074;50.940;5.282;2023-04-06T03:57:14;23.25;;;16.63;;
27666;SDS011;15074;50.940;5.282;2023-04-06T03:59:40;22.73;;;16.85;;
27666;SDS011;15074;50.940;5.282;2023-04-06T04:02:06;30.55;;;16.92;;
27666;SDS011;15074;50.940;5.282;2023-04-06T04:04:31;21.95;;;15.85;;
27666;SDS011;15074;50.940;5.282;2023-04-06T04:06:57;25.58;;;16.23;;
27666;SDS011;15074;50.940;5.282;2023-04-06T04:09:23;21.15;;;15.80;;
27666;SDS011;15074;50.940;5.282;2023-04-06T04:11:48;21.70;;;16.10;;
27666;SDS011;15074;50.940;5.282;2023-04-06T04:14:14;36.70;;;16.55;;
27666;SDS011;15074;50.940;5.282;2023-04-06T04:16:40;27.80;;;17.40;;
27666;SDS011;15074;50.940;5.282;2023-04-06T04:19:06;27.67;;;16.45;;
27666;SDS011;15074;50.940;5.282;2023-04-06T04:21:32;29.23;;;16.35;;
27666;SDS011;15074;50.940;5.282;2023-04-06T04:23:58;27.48;;;15.77;;
27666;SDS011;15074;50.940;5.282;2023-04-06T04:26:24;28.30;;;16.17;;
27666;SDS011;15074;50.940;5.282;2023-04-06T04:28:50;22.92;;;15.98;;
27666;SDS011;15074;50.940;5.282;2023-04-06T04:31:15;23.15;;;15.23;;
27666;SDS011;15074;50.940;5.282;2023-04-06T04:33:43;25.70;;;17.05;;
27666;SDS011;15074;50.940;5.282;2023-04-06T04:36:09;28.90;;;16.42;;
27666;SDS011;15074;50.940;5.282;2023-04-06T04:38:35;25.60;;;16.88;;
27666;SDS011;15074;50.940;5.282;2023-04-06T04:41:01;21.95;;;16.02;;
27666;SDS011;15074;50.940;5.282;2023-04-06T04:43:26;23.30;;;15.48;;
27666;SDS011;15074;50.940;5.282;2023-04-06T04:45:52;20.23;;;15.18;;
27666;SDS011;15074;50.940;5.282;2023-04-06T04:48:18;23.88;;;15.65;;
27666;SDS011;15074;50.940;5.282;2023-04-06T04:50:43;23.98;;;16.85;;
27666;SDS011;15074;50.940;5.282;2023-04-06T04:53:09;30.92;;;16.75;;
27666;SDS011;15074;50.940;5.282;2023-04-06T04:55:35;27.70;;;15.90;;
27666;SDS011;15074;50.940;5.282;2023-04-06T04:58:00;24.95;;;15.93;;
27666;SDS011;15074;50.940;5.282;2023-04-06T05:00:27;27.70;;;15.80;;
27666;SDS011;15074;50.940;5.282;2023-04-06T05:02:53;22.33;;;16.65;;
27666;SDS011;15074;50.940;5.282;2023-04-06T05:05:19;30.15;;;15.88;;
27666;SDS011;15074;50.940;5.282;2023-04-06T05:07:45;23.40;;;16.63;;
27666;SDS011;15074;50.940;5.282;2023-04-06T05:10:10;26.27;;;16.27;;
27666;SDS011;15074;50.940;5.282;2023-04-06T05:12:37;27.08;;;16.13;;
27666;SDS011;15074;50.940;5.282;2023-04-06T05:15:03;20.08;;;15.35;;
27666;SDS011;15074;50.940;5.282;2023-04-06T05:17:29;28.70;;;16.27;;
27666;SDS011;15074;50.940;5.282;2023-04-06T05:19:55;29.85;;;16.77;;
27666;SDS011;15074;50.940;5.282;2023-04-06T05:22:21;30.92;;;17.42;;
27666;SDS011;15074;50.940;5.282;2023-04-06T05:24:46;25.13;;;16.42;;
27666;SDS011;15074;50.940;5.282;2023-04-06T05:27:12;27.58;;;16.98;;
27666;SDS011;15074;50.940;5.282;2023-04-06T05:29:38;23.67;;;15.85;;
27666;SDS011;15074;50.940;5.282;2023-04-06T05:32:03;22.65;;;15.38;;
27666;SDS011;15074;50.940;5.282;2023-04-06T05:34:29;28.55;;;14.25;;
27666;SDS011;15074;50.940;5.282;2023-04-06T05:36:55;20.88;;;15.32;;
27666;SDS011;15074;50.940;5.282;2023-04-06T05:39:21;29.42;;;16.60;;
27666;SDS011;15074;50.940;5.282;2023-04-06T05:41:48;23.10;;;16.30;;
27666;SDS011;15074;50.940;5.282;2023-04-06T05:44:14;24.48;;;15.25;;
27666;SDS011;15074;50.940;5.282;2023-04-06T05:46:39;22.95;;;15.70;;
27666;SDS011;15074;50.940;5.282;2023-04-06T05:49:05;19.70;;;15.98;;
27666;SDS011;15074;50.940;5.282;2023-04-06T05:51:31;25.30;;;15.75;;
27666;SDS011;15074;50.940;5.282;2023-04-06T05:53:56;24.33;;;16.00;;
27666;SDS011;15074;50.940;5.282;2023-04-06T05:56:23;31.10;;;16.98;;
27666;SDS011;15074;50.940;5.282;2023-04-06T05:58:48;19.80;;;16.13;;
27666;SDS011;15074;50.940;5.282;2023-04-06T06:01:14;27.92;;;15.32;;
27666;SDS011;15074;50.940;5.282;2023-04-06T06:03:40;22.50;;;15.18;;
27666;SDS011;15074;50.940;5.282;2023-04-06T06:06:06;24.52;;;14.85;;
27666;SDS011;15074;50.940;5.282;2023-04-06T06:08:32;32.97;;;15.85;;
27666;SDS011;15074;50.940;5.282;2023-04-06T06:10:57;26.02;;;14.85;;
27666;SDS011;15074;50.940;5.282;2023-04-06T06:13:23;24.73;;;15.20;;
27666;SDS011;15074;50.940;5.282;2023-04-06T06:15:49;21.38;;;15.23;;
27666;SDS011;15074;50.940;5.282;2023-04-06T06:18:15;31.98;;;15.40;;
27666;SDS011;15074;50.940;5.282;2023-04-06T06:20:41;19.55;;;14.43;;
27666;SDS011;15074;50.940;5.282;2023-04-06T06:23:07;25.27;;;15.38;;
27666;SDS011;15074;50.940;5.282;2023-04-06T06:25:32;24.25;;;15.88;;
27666;SDS011;15074;50.940;5.282;2023-04-06T06:27:58;25.25;;;16.20;;
27666;SDS011;15074;50.940;5.282;2023-04-06T06:30:25;22.27;;;15.70;;
27666;SDS011;15074;50.940;5.282;2023-04-06T06:32:51;27.45;;;17.13;;
27666;SDS011;15074;50.940;5.282;2023-04-06T06:35:23;25.90;;;14.73;;
27666;SDS011;15074;50.940;5.282;2023-04-06T06:37:48;25.70;;;15.57;;
27666;SDS011;15074;50.940;5.282;2023-04-06T06:40:14;25.58;;;15.27;;
27666;SDS011;15074;50.940;5.282;2023-04-06T06:42:42;25.45;;;16.15;;
27666;SDS011;15074;50.940;5.282;2023-04-06T06:45:07;24.80;;;16.33;;
27666;SDS011;15074;50.940;5.282;2023-04-06T06:47:34;22.27;;;15.07;;
27666;SDS011;15074;50.940;5.282;2023-04-06T06:50:00;21.13;;;15.82;;
27666;SDS011;15074;50.940;5.282;2023-04-06T06:52:26;23.13;;;15.80;;
27666;SDS011;15074;50.940;5.282;2023-04-06T06:54:53;20.30;;;16.13;;
27666;SDS011;15074;50.940;5.282;2023-04-06T06:57:19;19.70;;;15.55;;
27666;SDS011;15074;50.940;5.282;2023-04-06T06:59:45;19.70;;;14.15;;
27666;SDS011;15074;50.940;5.282;2023-04-06T07:02:10;22.77;;;15.02;;
27666;SDS011;15074;50.940;5.282;2023-04-06T07:04:36;16.73;;;14.70;;
27666;SDS011;15074;50.940;5.282;2023-04-06T07:07:02;19.65;;;14.50;;
27666;SDS011;15074;50.940;5.282;2023-04-06T07:09:28;21.88;;;15.02;;
27666;SDS011;15074;50.940;5.282;2023-04-06T07:11:54;23.08;;;14.07;;
27666;SDS011;15074;50.940;5.282;2023-04-06T07:14:21;16.23;;;13.98;;
27666;SDS011;15074;50.940;5.282;2023-04-06T07:16:47;20.63;;;14.05;;
27666;SDS011;15074;50.940;5.282;2023-04-06T07:19:13;28.10;;;15.32;;
27666;SDS011;15074;50.940;5.282;2023-04-06T07:21:39;19.15;;;14.50;;
27666;SDS011;15074;50.940;5.282;2023-04-06T07:24:05;19.58;;;14.00;;
27666;SDS011;15074;50.940;5.282;2023-04-06T07:26:31;19.60;;;14.93;;
27666;SDS011;15074;50.940;5.282;2023-04-06T07:28:56;21.98;;;14.23;;
27666;SDS011;15074;50.940;5.282;2023-04-06T07:31:22;16.52;;;12.98;;
27666;SDS011;15074;50.940;5.282;2023-04-06T07:33:48;21.02;;;13.82;;
27666;SDS011;15074;50.940;5.282;2023-04-06T07:36:15;18.90;;;13.13;;
27666;SDS011;15074;50.940;5.282;2023-04-06T07:38:40;18.90;;;13.45;;
27666;SDS011;15074;50.940;5.282;2023-04-06T07:41:06;20.23;;;13.65;;
27666;SDS011;15074;50.940;5.282;2023-04-06T07:43:32;23.20;;;14.05;;
27666;SDS011;15074;50.940;5.282;2023-04-06T07:45:57;20.20;;;14.80;;
27666;SDS011;15074;50.940;5.282;2023-04-06T07:48:24;13.80;;;12.35;;
27666;SDS011;15074;50.940;5.282;2023-04-06T07:50:50;16.10;;;13.25;;
27666;SDS011;15074;50.940;5.282;2023-04-06T07:53:16;15.38;;;12.65;;
27666;SDS011;15074;50.940;5.282;2023-04-06T07:55:41;16.48;;;12.00;;
27666;SDS011;15074;50.940;5.282;2023-04-06T07:58:07;16.17;;;13.88;;
27666;SDS011;15074;50.940;5.282;2023-04-06T08:00:33;18.17;;;12.57;;
27666;SDS011;15074;50.940;5.282;2023-04-06T08:02:58;15.57;;;12.27;;
27666;SDS011;15074;50.940;5.282;2023-04-06T08:05:24;20.95;;;12.85;;
27666;SDS011;15074;50.940;5.282;2023-04-06T08:07:50;17.65;;;12.90;;
27666;SDS011;15074;50.940;5.282;2023-04-06T08:10:16;21.45;;;11.80;;
27666;SDS011;15074;50.940;5.282;2023-04-06T08:12:41;17.55;;;12.95;;
27666;SDS011;15074;50.940;5.282;2023-04-06T08:15:07;13.05;;;11.70;;
27666;SDS011;15074;50.940;5.282;2023-04-06T08:17:33;14.77;;;11.70;;
27666;SDS011;15074;50.940;5.282;2023-04-06T08:19:59;12.80;;;11.57;;
27666;SDS011;15074;50.940;5.282;2023-04-06T08:22:25;20.60;;;12.52;;
27666;SDS011;15074;50.940;5.282;2023-04-06T08:24:51;19.13;;;11.85;;
27666;SDS011;15074;50.940;5.282;2023-04-06T08:27:17;13.23;;;11.82;;
27666;SDS011;15074;50.940;5.282;2023-04-06T08:29:42;15.48;;;11.57;;
27666;SDS011;15074;50.940;5.282;2023-04-06T08:32:08;16.83;;;12.40;;
27666;SDS011;15074;50.940;5.282;2023-04-06T08:34:34;15.30;;;10.88;;
27666;SDS011;15074;50.940;5.282;2023-04-06T08:37:00;16.55;;;12.18;;
27666;SDS011;15074;50.940;5.282;2023-04-06T08:39:26;12.50;;;11.05;;
27666;SDS011;15074;50.940;5.282;2023-04-06T08:41:52;11.75;;;10.55;;
27666;SDS011;15074;50.940;5.282;2023-04-06T08:44:22;13.10;;;10.27;;
27666;SDS011;15074;50.940;5.282;2023-04-06T08:46:48;17.80;;;11.30;;
27666;SDS011;15074;50.940;5.282;2023-04-06T08:49:15;13.75;;;11.77;;
27666;SDS011;15074;50.940;5.282;2023-04-06T08:51:41;13.88;;;10.05;;
27666;SDS011;15074;50.940;5.282;2023-04-06T08:54:07;13.07;;;10.65;;
27666;SDS011;15074;50.940;5.282;2023-04-06T08:56:33;15.52;;;10.88;;
27666;SDS011;15074;50.940;5.282;2023-04-06T08:59:03;11.55;;;10.18;;
27666;SDS011;15074;50.940;5.282;2023-04-06T09:01:30;15.90;;;9.38;;
27666;SDS011;15074;50.940;5.282;2023-04-06T09:03:59;12.50;;;10.65;;
27666;SDS011;15074;50.940;5.282;2023-04-06T09:06:26;11.82;;;10.20;;
27666;SDS011;15074;50.940;5.282;2023-04-06T09:08:52;12.32;;;9.15;;
27666;SDS011;15074;50.940;5.282;2023-04-06T09:11:19;16.37;;;10.27;;
27666;SDS011;15074;50.940;5.282;2023-04-06T09:16:18;12.95;;;9.02;;
27666;SDS011;15074;50.940;5.282;2023-04-06T09:18:44;10.48;;;9.35;;
27666;SDS011;15074;50.940;5.282;2023-04-06T09:21:11;11.73;;;8.77;;
27666;SDS011;15074;50.940;5.282;2023-04-06T09:23:37;10.02;;;8.95;;
27666;SDS011;15074;50.940;5.282;2023-04-06T09:28:44;11.20;;;7.38;;
27666;SDS011;15074;50.940;5.282;2023-04-06T09:31:13;10.30;;;8.27;;
27666;SDS011;15074;50.940;5.282;2023-04-06T09:33:41;8.88;;;7.97;;
27666;SDS011;15074;50.940;5.282;2023-04-06T09:36:09;11.13;;;8.15;;
27666;SDS011;15074;50.940;5.282;2023-04-06T09:38:52;9.43;;;7.72;;
27666;SDS011;15074;50.940;5.282;2023-04-06T09:46:31;10.10;;;7.80;;
27666;SDS011;15074;50.940;5.282;2023-04-06T09:48:59;10.10;;;8.35;;
27666;SDS011;15074;50.940;5.282;2023-04-06T09:51:27;13.63;;;8.27;;
27666;SDS011;15074;50.940;5.282;2023-04-06T09:53:56;11.18;;;8.98;;
27666;SDS011;15074;50.940;5.282;2023-04-06T09:56:33;11.55;;;8.88;;
27666;SDS011;15074;50.940;5.282;2023-04-06T09:59:08;11.15;;;9.25;;
27666;SDS011;15074;50.940;5.282;2023-04-06T10:01:38;10.32;;;8.88;;
27666;SDS011;15074;50.940;5.282;2023-04-06T10:06:54;12.38;;;8.25;;
27666;SDS011;15074;50.940;5.282;2023-04-06T10:09:22;10.13;;;8.90;;
27666;SDS011;15074;50.940;5.282;2023-04-06T10:11:53;11.75;;;9.48;;
27666;SDS011;15074;50.940;5.282;2023-04-06T10:14:20;11.50;;;8.82;;
27666;SDS011;15074;50.940;5.282;2023-04-06T10:16:47;14.45;;;9.13;;
27666;SDS011;15074;50.940;5.282;2023-04-06T10:19:16;9.85;;;8.85;;
27666;SDS011;15074;50.940;5.282;2023-04-06T10:21:48;10.55;;;9.02;;
27666;SDS011;15074;50.940;5.282;2023-04-06T10:24:18;11.75;;;9.23;;
27666;SDS011;15074;50.940;5.282;2023-04-06T10:26:56;12.57;;;10.35;;
27666;SDS011;15074;50.940;5.282;2023-04-06T10:29:40;17.35;;;10.00;;
27666;SDS011;15074;50.940;5.282;2023-04-06T10:32:10;12.27;;;9.07;;
27666;SDS011;15074;50.940;5.282;2023-04-06T10:34:36;12.02;;;9.77;;
27666;SDS011;15074;50.940;5.282;2023-04-06T10:37:12;11.73;;;10.32;;
27666;SDS011;15074;50.940;5.282;2023-04-06T10:42:38;10.80;;;8.77;;
27666;SDS011;15074;50.940;5.282;2023-04-06T10:45:07;9.75;;;8.38;;
27666;SDS011;15074;50.940;5.282;2023-04-06T10:47:44;10.93;;;8.32;;
27666;SDS011;15074;50.940;5.282;2023-04-06T10:50:11;10.13;;;8.32;;
27666;SDS011;15074;50.940;5.282;2023-04-06T10:52:40;14.38;;;8.50;;
27666;SDS011;15074;50.940;5.282;2023-04-06T10:55:05;10.15;;;8.43;;
27666;SDS011;15074;50.940;5.282;2023-04-06T11:00:01;12.52;;;8.73;;
27666;SDS011;15074;50.940;5.282;2023-04-06T11:02:29;10.07;;;9.07;;
27666;SDS011;15074;50.940;5.282;2023-04-06T11:04:58;10.18;;;8.43;;
27666;SDS011;15074;50.940;5.282;2023-04-06T11:07:27;11.93;;;8.55;;
27666;SDS011;15074;50.940;5.282;2023-04-06T11:09:55;8.93;;;8.02;;
27666;SDS011;15074;50.940;5.282;2023-04-06T11:12:30;9.38;;;8.30;;
27666;SDS011;15074;50.940;5.282;2023-04-06T11:15:00;8.57;;;7.53;;
27666;SDS011;15074;50.940;5.282;2023-04-06T11:17:33;8.20;;;7.35;;
27666;SDS011;15074;50.940;5.282;2023-04-06T11:20:01;11.85;;;6.88;;
27666;SDS011;15074;50.940;5.282;2023-04-06T11:22:28;8.27;;;7.13;;
27666;SDS011;15074;50.940;5.282;2023-04-06T11:25:07;8.43;;;7.53;;
27666;SDS011;15074;50.940;5.282;2023-04-06T11:27:34;10.23;;;8.05;;
27666;SDS011;15074;50.940;5.282;2023-04-06T11:30:00;9.07;;;8.18;;
27666;SDS011;15074;50.940;5.282;2023-04-06T11:32:27;8.60;;;7.55;;
27666;SDS011;15074;50.940;5.282;2023-04-06T11:34:53;9.88;;;8.75;;
27666;SDS011;15074;50.940;5.282;2023-04-06T11:37:18;10.10;;;8.35;;
27666;SDS011;15074;50.940;5.282;2023-04-06T11:42:22;9.38;;;8.40;;
27666;SDS011;15074;50.940;5.282;2023-04-06T11:44:58;10.68;;;8.05;;
27666;SDS011;15074;50.940;5.282;2023-04-06T11:47:34;11.63;;;9.82;;
27666;SDS011;15074;50.940;5.282;2023-04-06T11:50:12;13.25;;;7.70;;
27666;SDS011;15074;50.940;5.282;2023-04-06T11:52:42;9.20;;;7.93;;
27666;SDS011;15074;50.940;5.282;2023-04-06T11:55:15;10.80;;;7.43;;
27666;SDS011;15074;50.940;5.282;2023-04-06T11:57:42;8.10;;;7.30;;
27666;SDS011;15074;50.940;5.282;2023-04-06T12:00:09;9.85;;;8.88;;
27666;SDS011;15074;50.940;5.282;2023-04-06T12:02:36;8.10;;;7.18;;
27666;SDS011;15074;50.940;5.282;2023-04-06T12:05:02;9.43;;;8.05;;
27666;SDS011;15074;50.940;5.282;2023-04-06T12:07:30;11.15;;;8.10;;
27666;SDS011;15074;50.940;5.282;2023-04-06T12:09:57;12.07;;;8.10;;
27666;SDS011;15074;50.940;5.282;2023-04-06T12:12:24;9.03;;;7.77;;
27666;SDS011;15074;50.940;5.282;2023-04-06T12:14:50;8.40;;;7.20;;
27666;SDS011;15074;50.940;5.282;2023-04-06T12:17:16;9.23;;;8.10;;
27666;SDS011;15074;50.940;5.282;2023-04-06T12:19:43;9.60;;;7.72;;
27666;SDS011;15074;50.940;5.282;2023-04-06T12:22:08;8.85;;;6.70;;
27666;SDS011;15074;50.940;5.282;2023-04-06T12:24:34;10.30;;;8.30;;
27666;SDS011;15074;50.940;5.282;2023-04-06T12:27:00;10.20;;;8.68;;
27666;SDS011;15074;50.940;5.282;2023-04-06T12:29:26;9.48;;;8.07;;
27666;SDS011;15074;50.940;5.282;2023-04-06T12:31:52;9.27;;;8.25;;
27666;SDS011;15074;50.940;5.282;2023-04-06T12:34:18;8.75;;;7.55;;
27666;SDS011;15074;50.940;5.282;2023-04-06T12:36:43;11.57;;;9.00;;
27666;SDS011;15074;50.940;5.282;2023-04-06T12:39:09;11.75;;;8.25;;
27666;SDS011;15074;50.940;5.282;2023-04-06T12:41:36;10.80;;;8.98;;
27666;SDS011;15074;50.940;5.282;2023-04-06T12:44:02;8.63;;;7.47;;
27666;SDS011;15074;50.940;5.282;2023-04-06T12:46:28;10.68;;;9.57;;
27666;SDS011;15074;50.940;5.282;2023-04-06T12:48:57;10.18;;;9.18;;
27666;SDS011;15074;50.940;5.282;2023-04-06T12:51:24;9.57;;;8.57;;
27666;SDS011;15074;50.940;5.282;2023-04-06T12:53:52;10.30;;;9.20;;
27666;SDS011;15074;50.940;5.282;2023-04-06T12:56:18;12.82;;;9.43;;
27666;SDS011;15074;50.940;5.282;2023-04-06T12:58:46;11.32;;;9.90;;
27666;SDS011;15074;50.940;5.282;2023-04-06T13:01:12;10.07;;;8.70;;
27666;SDS011;15074;50.940;5.282;2023-04-06T13:03:38;9.93;;;8.93;;
27666;SDS011;15074;50.940;5.282;2023-04-06T13:06:05;10.65;;;9.15;;
27666;SDS011;15074;50.940;5.282;2023-04-06T13:08:33;10.98;;;9.80;;
27666;SDS011;15074;50.940;5.282;2023-04-06T13:10:59;10.68;;;9.38;;
27666;SDS011;15074;50.940;5.282;2023-04-06T13:13:26;10.40;;;9.25;;
27666;SDS011;15074;50.940;5.282;2023-04-06T13:16:02;12.43;;;8.85;;
27666;SDS011;15074;50.940;5.282;2023-04-06T13:18:32;9.98;;;7.72;;
27666;SDS011;15074;50.940;5.282;2023-04-06T13:20:59;10.38;;;8.80;;
27666;SDS011;15074;50.940;5.282;2023-04-06T13:23:25;11.30;;;10.18;;
27666;SDS011;15074;50.940;5.282;2023-04-06T13:26:01;13.55;;;10.82;;
27666;SDS011;15074;50.940;5.282;2023-04-06T13:28:29;10.98;;;9.73;;
27666;SDS011;15074;50.940;5.282;2023-04-06T13:30:55;9.75;;;8.32;;
27666;SDS011;15074;50.940;5.282;2023-04-06T13:33:22;8.93;;;8.02;;
27666;SDS011;15074;50.940;5.282;2023-04-06T13:35:48;10.10;;;9.13;;
27666;SDS011;15074;50.940;5.282;2023-04-06T13:38:14;9.65;;;8.75;;
27666;SDS011;15074;50.940;5.282;2023-04-06T13:40:41;9.82;;;8.82;;
27666;SDS011;15074;50.940;5.282;2023-04-06T13:43:07;9.88;;;8.88;;
27666;SDS011;15074;50.940;5.282;2023-04-06T13:45:33;10.38;;;8.00;;
27666;SDS011;15074;50.940;5.282;2023-04-06T13:55:51;9.45;;;8.52;;
27666;SDS011;15074;50.940;5.282;2023-04-06T13:58:18;10.23;;;9.18;;
27666;SDS011;15074;50.940;5.282;2023-04-06T14:03:14;13.38;;;10.15;;
27666;SDS011;15074;50.940;5.282;2023-04-06T14:18:36;10.45;;;9.40;;
27666;SDS011;15074;50.940;5.282;2023-04-06T14:21:02;10.25;;;9.13;;
27666;SDS011;15074;50.940;5.282;2023-04-06T14:23:28;11.95;;;10.75;;
27666;SDS011;15074;50.940;5.282;2023-04-06T14:28:29;16.25;;;10.80;;
27666;SDS011;15074;50.940;5.282;2023-04-06T14:30:56;11.57;;;10.48;;
27666;SDS011;15074;50.940;5.282;2023-04-06T14:33:22;12.05;;;10.95;;
27666;SDS011;15074;50.940;5.282;2023-04-06T14:35:47;12.80;;;10.95;;
27666;SDS011;15074;50.940;5.282;2023-04-06T14:38:13;13.13;;;11.00;;
27666;SDS011;15074;50.940;5.282;2023-04-06T14:40:39;14.10;;;11.43;;
27666;SDS011;15074;50.940;5.282;2023-04-06T14:43:05;14.10;;;11.65;;
27666;SDS011;15074;50.940;5.282;2023-04-06T14:45:32;13.23;;;11.93;;
27666;SDS011;15074;50.940;5.282;2023-04-06T14:48:00;15.68;;;12.65;;
27666;SDS011;15074;50.940;5.282;2023-04-06T14:50:26;14.35;;;12.82;;
27666;SDS011;15074;50.940;5.282;2023-04-06T14:52:52;13.73;;;12.45;;
27666;SDS011;15074;50.940;5.282;2023-04-06T14:55:17;14.10;;;12.50;;
27666;SDS011;15074;50.940;5.282;2023-04-06T14:57:43;13.32;;;12.02;;
27666;SDS011;15074;50.940;5.282;2023-04-06T15:00:09;15.45;;;13.77;;
27666;SDS011;15074;50.940;5.282;2023-04-06T15:02:35;11.48;;;9.88;;
27666;SDS011;15074;50.940;5.282;2023-04-06T15:05:02;14.45;;;13.05;;
27666;SDS011;15074;50.940;5.282;2023-04-06T15:07:28;17.17;;;13.05;;
27666;SDS011;15074;50.940;5.282;2023-04-06T15:09:54;15.27;;;13.40;;